CYWK

Wabush Airport

Wabush, Canada
METAR CYWK 201600Z 10007KT 050V140 1 1/2SM -SN OVC020 M03/M06 A2921 RMK SC8 /S04/ SLP926
Observed Flight Rules
Oct-20 @ 16:00 UTC (an hour ago) Instrument Flight Rules
Wind Visibility Clouds Conditions
100° at 7 knots 1 1/2 miles
  • Overcast at 2,000' AGL
  • Light Snow
Temperatures Readings
Current -3°C / 27°F
Dewpoint -6°C / 21°F
Humidity 80%
Altimeter 29.21" Hg
Pressure 992.6 hPa
Elevation 551
METAR CYWK 201600Z 10007KT 050V140 1 1/2SM -SN OVC020 M03/M06 A2921 RMK SC8 /S04/ SLP926
Observed Flight Rules
Oct-20 @ 16:00 UTC
(an hour ago)
IFR
Wind Visibility
100° at 7 knots 1 1/2 miles
Clouds
  • Overcast at 2,000' AGL
Conditions
  • Light Snow
Temperature Dewpoint
-3°C / 27°F -6°C / 21°F
Humidity Altimeter Pressure
80% 29.21" Hg 992.6 hPa